createdAt,value
2018-11-21T00:00:01.110Z,5.18
2018-11-21T00:01:01.171Z,5.21
2018-11-21T00:02:01.310Z,5.17
2018-11-21T00:03:01.286Z,5.05
2018-11-21T00:04:01.352Z,5.07
2018-11-21T00:05:01.403Z,5.04
2018-11-21T00:06:01.468Z,5.11
2018-11-21T00:07:01.526Z,5.05
2018-11-21T00:08:01.585Z,5.04
2018-11-21T00:09:01.635Z,5.02
2018-11-21T00:10:01.695Z,5.04
2018-11-21T00:11:01.751Z,5.00
2018-11-21T00:12:01.820Z,4.97
2018-11-21T00:13:01.880Z,5.02
2018-11-21T00:14:01.927Z,4.99
2018-11-21T00:15:01.990Z,4.97
2018-11-21T00:16:02.047Z,5.04
2018-11-21T00:17:02.212Z,4.94
2018-11-21T00:18:02.163Z,4.93
2018-11-21T00:19:02.216Z,4.89
2018-11-21T00:20:02.275Z,4.89
2018-11-21T00:21:02.331Z,4.89
2018-11-21T00:22:02.403Z,4.90
2018-11-21T00:23:02.455Z,4.84
2018-11-21T00:24:02.518Z,4.84
2018-11-21T00:25:02.572Z,4.84
2018-11-21T00:26:02.624Z,4.74
2018-11-21T00:27:02.687Z,4.75
2018-11-21T00:28:02.748Z,4.80
2018-11-21T00:29:02.822Z,4.87
2018-11-21T00:30:02.856Z,4.78
2018-11-21T00:31:02.912Z,4.86
2018-11-21T00:32:02.979Z,4.82
2018-11-21T00:33:03.036Z,4.87
2018-11-21T00:34:03.087Z,4.86
2018-11-21T00:35:03.146Z,4.84
2018-11-21T00:36:03.203Z,4.82
2018-11-21T00:37:03.273Z,4.77
2018-11-21T00:38:03.367Z,4.73
2018-11-21T00:39:03.376Z,4.68
2018-11-21T00:40:03.436Z,4.62
2018-11-21T00:41:03.493Z,4.60
2018-11-21T00:42:03.553Z,4.63
2018-11-21T00:43:03.616Z,4.60
2018-11-21T00:44:03.673Z,4.59
2018-11-21T00:45:03.725Z,4.62
2018-11-21T00:46:03.784Z,4.62
2018-11-21T00:47:03.840Z,4.58
2018-11-21T00:48:03.905Z,4.53
2018-11-21T00:49:03.966Z,4.59
2018-11-21T00:50:04.013Z,4.59
2018-11-21T00:51:04.075Z,4.58
2018-11-21T00:52:04.124Z,4.56
2018-11-21T00:53:04.189Z,4.50
2018-11-21T00:54:04.288Z,4.42
2018-11-21T00:55:04.313Z,4.45
2018-11-21T00:56:04.361Z,4.52
2018-11-21T00:57:04.421Z,4.41
2018-11-21T00:58:04.478Z,4.42
2018-11-21T00:59:04.551Z,4.40
2018-11-21T01:00:04.621Z,4.48
2018-11-21T01:01:04.653Z,4.30
2018-11-21T01:02:04.713Z,4.37
2018-11-21T01:03:04.769Z,4.34
2018-11-21T01:04:04.833Z,4.37
2018-11-21T01:05:04.894Z,4.45
2018-11-21T01:06:04.941Z,4.35
2018-11-21T01:07:05.003Z,4.44
2018-11-21T01:08:05.057Z,4.41
2018-11-21T01:09:05.369Z,4.42
2018-11-21T01:10:05.173Z,4.41
2018-11-21T01:11:05.233Z,4.42
2018-11-21T01:12:05.289Z,4.26
2018-11-21T01:13:05.346Z,4.31
2018-11-21T01:14:05.414Z,4.34
2018-11-21T01:15:05.470Z,4.42
2018-11-21T01:16:05.533Z,4.34
2018-11-21T01:17:05.580Z,4.24
2018-11-21T01:18:05.640Z,4.30
2018-11-21T01:19:05.705Z,4.32
2018-11-21T01:20:05.758Z,4.26
2018-11-21T01:21:05.809Z,4.31
2018-11-21T01:22:05.869Z,4.32
2018-11-21T01:23:05.925Z,4.28
2018-11-21T01:24:05.989Z,4.16
2018-11-21T01:25:06.051Z,4.23
2018-11-21T01:26:06.106Z,4.32
2018-11-21T01:27:06.158Z,4.24
2018-11-21T01:28:06.214Z,4.37
2018-11-21T01:29:06.318Z,4.31
2018-11-21T01:30:06.337Z,4.40
2018-11-21T01:31:06.392Z,4.40
2018-11-21T01:32:06.446Z,4.40
2018-11-21T01:33:09.766Z,4.42
2018-11-21T01:34:06.575Z,4.48
2018-11-21T01:35:06.650Z,4.48
2018-11-21T01:36:06.678Z,4.41
2018-11-21T01:37:06.751Z,4.31
2018-11-21T01:38:06.807Z,4.44
2018-11-21T01:39:06.862Z,4.35
2018-11-21T01:40:06.923Z,4.26
2018-11-21T01:41:06.972Z,4.40
2018-11-21T01:42:07.029Z,4.40
2018-11-21T01:43:07.087Z,4.44
2018-11-21T01:44:07.238Z,4.45
2018-11-21T01:45:07.203Z,4.44
2018-11-21T01:46:07.259Z,4.50
2018-11-21T01:47:07.327Z,4.48
2018-11-21T01:48:07.379Z,4.35
2018-11-21T01:49:07.440Z,4.40
2018-11-21T01:50:07.503Z,4.48
2018-11-21T01:51:07.551Z,4.52
2018-11-21T01:52:07.611Z,4.49
2018-11-21T01:53:07.683Z,4.49
2018-11-21T01:54:07.728Z,4.59
2018-11-21T01:55:07.798Z,4.56
2018-11-21T01:56:07.839Z,4.60
2018-11-21T01:57:07.899Z,4.55
2018-11-21T01:58:07.955Z,4.58
2018-11-21T01:59:08.019Z,4.55
2018-11-21T02:00:08.077Z,4.49
2018-11-21T02:01:08.131Z,4.44
2018-11-21T02:02:08.187Z,4.48
2018-11-21T02:03:08.243Z,4.40
2018-11-21T02:04:08.308Z,4.53
2018-11-21T02:05:08.369Z,4.52
2018-11-21T02:06:08.420Z,4.48
2018-11-21T02:07:08.476Z,4.48
2018-11-21T02:08:08.540Z,4.49
2018-11-21T02:09:08.600Z,4.48
2018-11-21T02:10:08.656Z,4.52
2018-11-21T02:11:08.712Z,4.52
2018-11-21T02:12:08.766Z,4.48
2018-11-21T02:13:08.824Z,4.44
2018-11-21T02:14:08.896Z,4.38
2018-11-21T02:15:08.944Z,4.40
2018-11-21T02:16:08.996Z,4.44
2018-11-21T02:17:09.056Z,4.49
2018-11-21T02:18:09.108Z,4.42
2018-11-21T02:19:09.186Z,4.41
2018-11-21T02:20:09.228Z,4.41
2018-11-21T02:21:09.285Z,4.49
2018-11-21T02:22:09.345Z,4.45
2018-11-21T02:23:09.402Z,4.45
2018-11-21T02:24:09.465Z,4.41
2018-11-21T02:25:09.525Z,4.34
2018-11-21T02:26:09.573Z,4.32
2018-11-21T02:27:09.632Z,4.30
2018-11-21T02:28:09.689Z,4.23
2018-11-21T02:29:09.757Z,4.26
2018-11-21T02:30:09.818Z,4.31
2018-11-21T02:31:09.867Z,4.26
2018-11-21T02:32:09.921Z,4.20
2018-11-21T02:33:09.981Z,4.10
2018-11-21T02:34:10.048Z,4.26
2018-11-21T02:35:10.103Z,4.22
2018-11-21T02:36:10.154Z,4.23
2018-11-21T02:37:10.209Z,4.23
2018-11-21T02:38:10.273Z,4.14
2018-11-21T02:39:10.335Z,4.16
2018-11-21T02:40:10.389Z,4.19
2018-11-21T02:41:10.446Z,4.19
2018-11-21T02:42:10.501Z,4.12
2018-11-21T02:43:10.562Z,4.16
2018-11-21T02:44:10.624Z,4.19
2018-11-21T02:45:10.682Z,4.10
2018-11-21T02:46:10.730Z,4.06
2018-11-21T02:47:10.790Z,4.12
2018-11-21T02:48:10.845Z,4.08
2018-11-21T02:49:10.914Z,4.06
2018-11-21T02:50:10.973Z,4.10
2018-11-21T02:51:11.023Z,4.08
2018-11-21T02:52:11.078Z,4.13
2018-11-21T02:53:11.138Z,4.05
2018-11-21T02:54:11.435Z,4.06
2018-11-21T02:55:11.257Z,4.02
2018-11-21T02:56:11.310Z,3.98
2018-11-21T02:57:11.366Z,3.95
2018-11-21T02:58:11.426Z,4.01
2018-11-21T02:59:11.491Z,4.08
2018-11-21T03:00:11.547Z,4.01
2018-11-21T03:01:11.599Z,4.04
2018-11-21T03:02:11.658Z,3.98
2018-11-21T03:03:11.714Z,3.96
2018-11-21T03:04:11.778Z,4.10
2018-11-21T03:05:11.839Z,4.05
2018-11-21T03:06:11.891Z,3.96
2018-11-21T03:07:11.947Z,3.94
2018-11-21T03:08:12.002Z,3.94
2018-11-21T03:09:12.070Z,3.99
2018-11-21T03:10:12.127Z,4.02
2018-11-21T03:11:12.178Z,3.84
2018-11-21T03:12:12.234Z,3.92
2018-11-21T03:13:12.296Z,3.87
2018-11-21T03:14:12.360Z,3.84
2018-11-21T03:15:12.419Z,3.83
2018-11-21T03:16:12.467Z,3.81
2018-11-21T03:17:12.526Z,3.77
2018-11-21T03:18:12.583Z,3.68
2018-11-21T03:19:12.648Z,3.84
2018-11-21T03:20:12.707Z,3.78
2018-11-21T03:21:12.755Z,3.76
2018-11-21T03:22:12.815Z,3.76
2018-11-21T03:23:12.873Z,3.73
2018-11-21T03:24:12.939Z,3.77
2018-11-21T03:25:13.003Z,3.80
2018-11-21T03:26:13.048Z,3.70
2018-11-21T03:27:13.103Z,3.73
2018-11-21T03:28:13.164Z,3.65
2018-11-21T03:29:13.220Z,3.68
2018-11-21T03:30:13.299Z,3.51
2018-11-21T03:31:13.340Z,3.41
2018-11-21T03:32:13.400Z,3.50
2018-11-21T03:33:13.453Z,3.42
2018-11-21T03:34:13.512Z,3.28
2018-11-21T03:35:13.577Z,3.34
2018-11-21T03:36:13.635Z,3.25
2018-11-21T03:37:13.684Z,3.13
2018-11-21T03:38:13.744Z,3.16
2018-11-21T03:39:13.800Z,3.10
2018-11-21T03:40:13.867Z,3.01
2018-11-21T03:41:13.921Z,3.03
2018-11-21T03:42:13.973Z,3.04
2018-11-21T03:43:14.033Z,2.82
2018-11-21T03:44:14.092Z,2.85
2018-11-21T03:45:14.148Z,2.74
2018-11-21T03:46:14.444Z,2.71
2018-11-21T03:47:14.266Z,2.69
2018-11-21T03:48:14.321Z,2.57
2018-11-21T03:49:14.380Z,2.64
2018-11-21T03:50:14.437Z,2.51
2018-11-21T03:51:14.501Z,2.56
2018-11-21T03:52:14.562Z,2.47
2018-11-21T03:53:14.609Z,2.50
2018-11-21T03:54:14.673Z,2.50
2018-11-21T03:55:14.724Z,2.49
2018-11-21T03:56:14.796Z,2.42
2018-11-21T03:57:14.851Z,2.53
2018-11-21T03:58:14.906Z,2.46
2018-11-21T03:59:14.958Z,2.46
2018-11-21T04:00:15.022Z,2.46
2018-11-21T04:01:15.089Z,2.42
2018-11-21T04:02:15.132Z,2.36
2018-11-21T04:03:15.189Z,2.36
2018-11-21T04:04:15.245Z,2.39
2018-11-21T04:05:15.307Z,2.39
2018-11-21T04:06:15.369Z,2.26
2018-11-21T04:07:15.435Z,2.35
2018-11-21T04:08:15.481Z,2.35
2018-11-21T04:09:15.535Z,2.17
2018-11-21T04:10:15.594Z,2.32
2018-11-21T04:11:15.660Z,2.18
2018-11-21T04:12:15.714Z,2.25
2018-11-21T04:13:15.765Z,2.08
2018-11-21T04:14:15.821Z,2.13
2018-11-21T04:15:15.884Z,2.11
2018-11-21T04:16:15.947Z,2.00
2018-11-21T04:17:16.003Z,2.00
2018-11-21T04:18:16.054Z,2.07
2018-11-21T04:19:16.110Z,1.95
2018-11-21T04:20:16.172Z,1.99
2018-11-21T04:21:16.227Z,1.97
2018-11-21T04:22:16.316Z,2.07
2018-11-21T04:23:16.341Z,1.94
2018-11-21T04:24:16.398Z,2.07
2018-11-21T04:25:16.458Z,2.02
2018-11-21T04:26:16.515Z,1.99
2018-11-21T04:27:16.578Z,2.04
2018-11-21T04:28:16.638Z,2.06
2018-11-21T04:29:16.688Z,1.97
2018-11-21T04:30:16.746Z,1.94
2018-11-21T04:31:16.803Z,1.97
2018-11-21T04:32:16.866Z,2.07
2018-11-21T04:33:16.930Z,2.07
2018-11-21T04:34:16.976Z,2.08
2018-11-21T04:35:17.036Z,2.02
2018-11-21T04:36:17.092Z,2.22
2018-11-21T04:37:17.147Z,2.13
2018-11-21T04:38:17.239Z,2.24
2018-11-21T04:39:17.262Z,2.11
2018-11-21T04:40:17.323Z,2.20
2018-11-21T04:41:17.379Z,2.04
2018-11-21T04:42:17.439Z,2.06
2018-11-21T04:43:17.504Z,2.06
2018-11-21T04:44:17.560Z,2.15
2018-11-21T04:45:17.607Z,2.00
2018-11-21T04:46:17.669Z,1.99
2018-11-21T04:47:17.723Z,1.97
2018-11-21T04:48:17.787Z,1.91
2018-11-21T04:49:17.849Z,1.91
2018-11-21T04:50:17.901Z,1.87
2018-11-21T04:51:17.955Z,1.74
2018-11-21T04:52:18.015Z,1.68
2018-11-21T04:53:18.087Z,1.62
2018-11-21T04:54:18.128Z,1.63
2018-11-21T04:55:18.184Z,1.66
2018-11-21T04:56:18.244Z,1.70
2018-11-21T04:57:18.300Z,1.63
2018-11-21T04:58:18.364Z,1.55
2018-11-21T04:59:18.420Z,1.48
2018-11-21T05:00:18.476Z,1.42
2018-11-21T05:01:18.528Z,1.35
2018-11-21T05:02:18.584Z,1.34
2018-11-21T05:03:18.652Z,1.32
2018-11-21T05:04:18.709Z,1.34
2018-11-21T05:05:18.756Z,1.26
2018-11-21T05:06:18.816Z,1.22
2018-11-21T05:07:18.874Z,1.23
2018-11-21T05:08:18.936Z,1.23
2018-11-21T05:09:18.997Z,1.17
2018-11-21T05:10:19.046Z,1.10
2018-11-21T05:11:19.104Z,1.04
2018-11-21T05:12:19.161Z,1.13
2018-11-21T05:13:19.216Z,1.04
2018-11-21T05:14:19.296Z,1.05
2018-11-21T05:15:19.336Z,1.04
2018-11-21T05:16:19.392Z,1.01
2018-11-21T05:17:19.448Z,0.98
2018-11-21T05:18:19.505Z,1.02
2018-11-21T05:19:19.569Z,1.01
2018-11-21T05:20:19.625Z,0.94
2018-11-21T05:21:19.677Z,0.92
2018-11-21T05:22:19.733Z,0.91
2018-11-21T05:23:19.789Z,0.87
2018-11-21T05:24:19.852Z,0.91
2018-11-21T05:25:19.949Z,0.80
2018-11-21T05:26:19.961Z,0.77
2018-11-21T05:27:20.017Z,0.84
2018-11-21T05:28:20.074Z,0.83
2018-11-21T05:29:20.133Z,0.80
2018-11-21T05:30:20.214Z,0.74
2018-11-21T05:31:20.248Z,0.73
2018-11-21T05:32:20.317Z,0.66
2018-11-21T05:33:20.363Z,0.63
2018-11-21T05:34:20.418Z,0.66
2018-11-21T05:35:20.482Z,0.60
2018-11-21T05:36:20.538Z,0.63
2018-11-21T05:37:20.589Z,0.58
2018-11-21T05:38:20.646Z,0.63
2018-11-21T05:39:20.703Z,0.62
2018-11-21T05:40:20.834Z,0.65
2018-11-21T05:41:20.822Z,0.73
2018-11-21T05:42:20.874Z,0.62
2018-11-21T05:43:20.933Z,0.66
2018-11-21T05:44:20.988Z,0.66
2018-11-21T05:45:21.052Z,0.58
2018-11-21T05:46:21.110Z,0.68
2018-11-21T05:47:21.162Z,0.63
2018-11-21T05:48:21.214Z,0.55
2018-11-21T05:49:21.401Z,0.58
2018-11-21T05:50:21.334Z,0.50
2018-11-21T05:51:21.394Z,0.47
2018-11-21T05:52:21.442Z,0.52
2018-11-21T05:53:21.498Z,0.58
2018-11-21T05:54:21.558Z,0.50
2018-11-21T05:55:21.625Z,0.52
2018-11-21T05:56:21.674Z,0.39
2018-11-21T05:57:21.732Z,0.47
2018-11-21T05:58:21.783Z,0.52
2018-11-21T05:59:21.841Z,0.46
2018-11-21T06:00:21.903Z,0.46
2018-11-21T06:01:21.959Z,0.43
2018-11-21T06:02:22.014Z,0.39
2018-11-21T06:03:22.067Z,0.34
2018-11-21T06:04:22.123Z,0.34
2018-11-21T06:05:22.430Z,0.41
2018-11-21T06:06:22.236Z,0.39
2018-11-21T06:07:22.295Z,0.28
2018-11-21T06:08:22.351Z,0.28
2018-11-21T06:09:22.408Z,0.34
2018-11-21T06:10:22.471Z,0.32
2018-11-21T06:11:22.533Z,0.41
2018-11-21T06:12:22.575Z,0.34
2018-11-21T06:13:22.635Z,0.41
2018-11-21T06:14:22.697Z,0.44
2018-11-21T06:15:22.760Z,0.55
2018-11-21T06:16:22.811Z,0.55
2018-11-21T06:17:22.860Z,0.58
2018-11-21T06:18:22.917Z,0.46
2018-11-21T06:19:22.971Z,0.55
2018-11-21T06:20:23.039Z,0.55
2018-11-21T06:21:23.095Z,0.55
2018-11-21T06:22:23.147Z,0.47
2018-11-21T06:23:23.199Z,0.58
2018-11-21T06:24:23.257Z,0.56
2018-11-21T06:25:23.323Z,0.66
2018-11-21T06:26:23.376Z,0.59
2018-11-21T06:27:23.424Z,0.65
2018-11-21T06:28:23.480Z,0.68
2018-11-21T06:29:23.539Z,0.58
2018-11-21T06:30:23.605Z,0.58
2018-11-21T06:31:23.660Z,0.69
2018-11-21T06:32:23.708Z,0.47
2018-11-21T06:33:23.764Z,0.58
2018-11-21T06:34:23.820Z,0.46
2018-11-21T06:35:23.885Z,0.56
2018-11-21T06:36:23.940Z,0.55
2018-11-21T06:37:23.993Z,0.47
2018-11-21T06:38:24.054Z,0.50
2018-11-21T06:39:24.105Z,0.39
2018-11-21T06:40:24.256Z,0.37
2018-11-21T06:41:24.216Z,0.44
2018-11-21T06:42:24.272Z,0.39
2018-11-21T06:43:24.328Z,0.37
2018-11-21T06:44:24.384Z,0.39
2018-11-21T06:45:24.448Z,0.34
2018-11-21T06:46:24.509Z,0.37
2018-11-21T06:47:24.557Z,0.32
2018-11-21T06:48:24.617Z,0.39
2018-11-21T06:49:24.674Z,0.34
2018-11-21T06:50:24.734Z,0.34
2018-11-21T06:51:24.789Z,0.34
2018-11-21T06:52:24.837Z,0.31
2018-11-21T06:53:24.893Z,0.31
2018-11-21T06:54:24.957Z,0.39
2018-11-21T06:55:25.017Z,0.37
2018-11-21T06:56:25.069Z,0.31
2018-11-21T06:57:25.122Z,0.32
2018-11-21T06:58:25.177Z,0.28
2018-11-21T06:59:25.233Z,0.26
2018-11-21T07:00:25.289Z,0.26
2018-11-21T07:01:25.590Z,0.28
2018-11-21T07:02:25.405Z,0.28
2018-11-21T07:03:25.461Z,0.36
2018-11-21T07:04:25.518Z,0.41
2018-11-21T07:05:25.573Z,0.47
2018-11-21T07:06:25.637Z,0.69
2018-11-21T07:07:25.705Z,0.62
2018-11-21T07:08:25.741Z,0.73
2018-11-21T07:09:25.798Z,0.76
2018-11-21T07:10:25.854Z,0.81
2018-11-21T07:11:25.921Z,0.80
2018-11-21T07:12:25.974Z,0.74
2018-11-21T07:13:26.024Z,0.74
2018-11-21T07:14:26.082Z,0.70
2018-11-21T07:15:26.141Z,0.73
2018-11-21T07:16:26.317Z,0.69
2018-11-21T07:17:26.250Z,0.60
2018-11-21T07:18:26.306Z,0.59
2018-11-21T07:19:26.366Z,0.70
2018-11-21T07:20:26.418Z,0.60
2018-11-21T07:21:26.486Z,0.65
2018-11-21T07:22:26.546Z,0.65
2018-11-21T07:23:26.599Z,0.73
2018-11-21T07:24:26.646Z,0.63
2018-11-21T07:25:26.706Z,0.60
2018-11-21T07:26:26.766Z,0.66
2018-11-21T07:27:26.824Z,0.56
2018-11-21T07:28:26.875Z,0.56
2018-11-21T07:29:34.286Z,0.59
2018-11-21T07:30:26.986Z,0.68
2018-11-21T07:31:27.051Z,0.68
2018-11-21T07:32:27.102Z,0.65
2018-11-21T07:33:27.155Z,0.70
2018-11-21T07:34:27.211Z,0.63
2018-11-21T07:35:27.267Z,0.60
2018-11-21T07:36:27.332Z,0.70
2018-11-21T07:37:27.387Z,0.63
2018-11-21T07:38:27.435Z,0.66
2018-11-21T07:39:27.496Z,0.62
2018-11-21T07:40:27.551Z,0.70
2018-11-21T07:41:27.619Z,0.83
2018-11-21T07:42:27.671Z,0.84
2018-11-21T07:43:27.719Z,0.92
2018-11-21T07:44:27.775Z,0.92
2018-11-21T07:45:27.832Z,1.01
2018-11-21T07:46:27.899Z,1.10
2018-11-21T07:47:27.955Z,1.22
2018-11-21T07:48:28.004Z,1.30
2018-11-21T07:49:28.059Z,1.34
2018-11-21T07:50:28.119Z,1.37
2018-11-21T07:51:28.284Z,1.40
2018-11-21T07:52:28.227Z,1.48
2018-11-21T07:53:28.287Z,1.49
2018-11-21T07:54:28.346Z,1.56
2018-11-21T07:55:28.400Z,1.70
2018-11-21T07:56:28.464Z,1.76
2018-11-21T07:57:28.520Z,2.00
2018-11-21T07:58:28.568Z,2.15
2018-11-21T07:59:28.629Z,2.51
2018-11-21T08:00:28.684Z,2.74
2018-11-21T08:01:28.753Z,2.85
2018-11-21T08:02:28.804Z,2.90
2018-11-21T08:03:28.856Z,2.95
2018-11-21T08:04:28.912Z,2.87
2018-11-21T08:05:28.975Z,2.68
2018-11-21T08:06:29.036Z,2.62
2018-11-21T08:07:29.092Z,2.51
2018-11-21T08:08:29.144Z,2.53
2018-11-21T08:09:29.200Z,2.39
2018-11-21T08:10:29.262Z,2.35
2018-11-21T08:11:29.323Z,2.38
2018-11-21T08:12:29.380Z,2.39
2018-11-21T08:13:29.437Z,2.32
2018-11-21T08:14:29.493Z,2.32
2018-11-21T08:15:29.551Z,2.33
2018-11-21T08:16:29.612Z,2.17
2018-11-21T08:17:29.668Z,2.18
2018-11-21T08:18:29.721Z,2.04
2018-11-21T08:19:29.781Z,1.95
2018-11-21T08:20:29.838Z,1.92
2018-11-21T08:21:29.903Z,1.85
2018-11-21T08:22:29.961Z,1.84
2018-11-21T08:23:30.009Z,1.85
2018-11-21T08:24:30.065Z,1.71
2018-11-21T08:25:30.130Z,1.73
2018-11-21T08:26:30.386Z,1.78
2018-11-21T08:27:30.240Z,1.77
2018-11-21T08:28:30.300Z,1.71
2018-11-21T08:29:30.359Z,1.67
2018-11-21T08:30:30.413Z,1.76
2018-11-21T08:31:30.477Z,2.15
2018-11-21T08:32:30.534Z,2.50
2018-11-21T08:33:33.961Z,3.07
2018-11-21T08:34:30.645Z,3.62
2018-11-21T08:35:30.701Z,4.02
2018-11-21T08:36:30.766Z,4.42
2018-11-21T08:37:30.830Z,4.78
2018-11-21T08:38:30.874Z,4.66
2018-11-21T08:39:30.934Z,4.89
2018-11-21T08:40:30.993Z,5.07
2018-11-21T08:41:31.062Z,5.35
2018-11-21T08:42:31.122Z,5.62
2018-11-21T08:43:31.174Z,5.68
2018-11-21T08:44:31.232Z,5.66
2018-11-21T08:45:31.286Z,5.99
2018-11-21T08:46:31.362Z,6.16
2018-11-21T08:47:31.412Z,6.38
2018-11-21T08:48:31.466Z,6.64
2018-11-21T08:49:31.526Z,6.85
2018-11-21T08:50:31.587Z,7.02
2018-11-21T08:51:31.659Z,7.06
2018-11-21T08:52:31.715Z,7.32
2018-11-21T08:53:31.766Z,7.48
2018-11-21T08:54:31.827Z,7.69
2018-11-21T08:55:31.890Z,7.88
2018-11-21T08:56:32.557Z,7.98
2018-11-21T08:57:32.015Z,7.97
2018-11-21T08:58:32.078Z,7.79
2018-11-21T08:59:32.130Z,7.69
2018-11-21T09:00:32.191Z,7.35
2018-11-21T09:01:32.251Z,7.11
2018-11-21T09:02:32.406Z,6.88
2018-11-21T09:03:32.379Z,6.62
2018-11-21T09:04:32.438Z,6.44
2018-11-21T09:05:32.494Z,6.08
2018-11-21T09:06:32.555Z,5.90
2018-11-21T09:07:32.627Z,5.61
2018-11-21T09:08:32.683Z,5.51
2018-11-21T09:09:32.742Z,5.25
2018-11-21T09:10:53.827Z,5.17
2018-11-21T09:11:32.863Z,4.99
2018-11-21T09:12:32.927Z,4.99
2018-11-21T09:13:32.987Z,5.08
2018-11-21T09:14:33.047Z,5.29
2018-11-21T09:15:33.099Z,5.48
2018-11-21T09:16:33.159Z,5.62
2018-11-21T09:17:33.220Z,5.73
2018-11-21T09:18:33.304Z,6.09
2018-11-21T09:19:33.339Z,6.42
2018-11-21T09:20:33.403Z,6.62
2018-11-21T09:21:33.460Z,6.75
2018-11-21T09:22:33.524Z,6.87
2018-11-21T09:23:33.591Z,7.14
2018-11-21T09:24:33.656Z,7.39
2018-11-21T09:25:33.706Z,7.63
2018-11-21T09:26:33.765Z,7.91
2018-11-21T09:27:33.827Z,8.06
2018-11-21T09:28:33.891Z,8.09
2018-11-21T09:29:33.956Z,8.36
2018-11-21T09:30:34.008Z,8.42
2018-11-21T09:31:34.072Z,8.55
2018-11-21T09:32:34.134Z,8.45
2018-11-21T09:33:34.237Z,8.74
2018-11-21T09:34:34.254Z,8.67
2018-11-21T09:35:34.320Z,8.64
2018-11-21T09:36:34.382Z,8.85
2018-11-21T09:37:34.436Z,8.79
2018-11-21T09:38:34.508Z,8.78
2018-11-21T09:39:34.568Z,8.82
2018-11-21T09:40:34.621Z,8.73
2018-11-21T09:41:34.688Z,8.52
2018-11-21T09:42:34.748Z,8.16
2018-11-21T09:43:34.817Z,7.76
2018-11-21T09:44:34.876Z,7.67
2018-11-21T09:45:34.928Z,7.43
2018-11-21T09:46:34.996Z,7.24
2018-11-21T09:47:35.052Z,7.05
2018-11-21T09:48:35.141Z,7.03
2018-11-21T09:49:35.177Z,6.85
2018-11-21T09:50:35.237Z,6.66
2018-11-21T09:51:35.301Z,6.60
2018-11-21T09:52:35.360Z,6.57
2018-11-21T09:53:35.429Z,6.52
2018-11-21T09:54:35.493Z,6.56
2018-11-21T09:55:35.976Z,6.63
2018-11-21T09:56:35.605Z,6.72
2018-11-21T09:57:35.665Z,6.92
2018-11-21T09:58:35.733Z,7.10
2018-11-21T09:59:35.797Z,7.20
2018-11-21T10:00:35.850Z,7.32
2018-11-21T10:01:35.909Z,7.43
2018-11-21T10:02:35.969Z,7.56
2018-11-21T10:03:36.044Z,7.54
2018-11-21T10:04:36.106Z,7.72
2018-11-21T10:05:36.153Z,7.67
2018-11-21T10:06:36.217Z,7.80
2018-11-21T10:07:36.277Z,7.83
2018-11-21T10:08:36.369Z,7.83
2018-11-21T10:09:36.397Z,7.95
2018-11-21T10:10:36.462Z,7.79
2018-11-21T10:11:36.521Z,7.51
2018-11-21T10:12:36.582Z,7.33
2018-11-21T10:13:36.656Z,7.10
2018-11-21T10:14:36.714Z,7.02
2018-11-21T10:15:36.766Z,6.79
2018-11-21T10:16:36.830Z,6.69
2018-11-21T10:17:36.890Z,6.57
2018-11-21T10:18:36.960Z,6.49
2018-11-21T10:19:37.018Z,6.38
2018-11-21T10:20:37.075Z,6.26
2018-11-21T10:21:37.134Z,6.09
2018-11-21T10:22:37.195Z,6.07
2018-11-21T10:23:37.281Z,6.07
2018-11-21T10:24:37.318Z,6.07
2018-11-21T10:25:37.379Z,6.08
2018-11-21T10:26:37.439Z,6.01
2018-11-21T10:27:37.502Z,6.02
2018-11-21T10:28:37.562Z,6.12
2018-11-21T10:29:37.639Z,6.20
2018-11-21T10:30:37.719Z,6.28
2018-11-21T10:31:37.743Z,6.24
2018-11-21T10:32:37.806Z,6.30
2018-11-21T10:33:37.872Z,6.31
2018-11-21T10:34:37.927Z,6.51
2018-11-21T10:35:37.988Z,6.54
2018-11-21T10:36:38.047Z,6.45
2018-11-21T10:37:38.111Z,6.56
2018-11-21T10:38:38.311Z,6.52
2018-11-21T10:39:38.239Z,6.62
2018-11-21T10:40:38.292Z,6.64
2018-11-21T10:41:38.360Z,6.75
2018-11-21T10:42:38.411Z,6.93
2018-11-21T10:43:38.479Z,6.89
2018-11-21T10:44:38.547Z,6.96
2018-11-21T10:45:38.600Z,7.02
2018-11-21T10:46:38.655Z,7.11
2018-11-21T10:47:38.714Z,7.35
2018-11-21T10:48:38.783Z,7.33
2018-11-21T10:49:38.844Z,7.43
2018-11-21T10:50:38.904Z,7.40
2018-11-21T10:51:38.960Z,7.36
2018-11-21T10:52:39.027Z,7.35
2018-11-21T10:53:39.294Z,7.33
2018-11-21T10:54:39.143Z,7.29
2018-11-21T10:55:39.203Z,7.20
2018-11-21T10:56:39.264Z,7.24
2018-11-21T10:57:39.324Z,7.17
2018-11-21T10:58:39.391Z,7.06
2018-11-21T10:59:39.470Z,7.14
2018-11-21T11:00:39.512Z,7.23
2018-11-21T11:01:39.568Z,7.35
2018-11-21T11:02:39.639Z,7.24
2018-11-21T11:03:39.704Z,7.20
2018-11-21T11:04:39.763Z,7.13
2018-11-21T11:05:39.812Z,7.06
2018-11-21T11:06:39.872Z,7.03
2018-11-21T11:07:39.936Z,6.85
2018-11-21T11:08:40.000Z,6.88
2018-11-21T11:09:40.064Z,6.85
2018-11-21T11:10:40.120Z,6.92
2018-11-21T11:11:40.176Z,6.89
2018-11-21T11:12:40.236Z,6.84
2018-11-21T11:13:40.297Z,6.87
2018-11-21T11:14:40.413Z,6.85
2018-11-21T11:15:40.420Z,6.81
2018-11-21T11:16:40.485Z,6.79
2018-11-21T11:17:40.541Z,6.81
2018-11-21T11:18:40.600Z,6.84
2018-11-21T11:19:40.669Z,6.81
2018-11-21T11:20:40.730Z,6.81
2018-11-21T11:21:40.781Z,6.69
2018-11-21T11:22:40.840Z,6.66
2018-11-21T11:23:40.903Z,6.57
2018-11-21T11:24:40.969Z,6.52
2018-11-21T11:25:41.045Z,6.56
2018-11-21T11:26:41.081Z,6.52
2018-11-21T11:27:41.142Z,6.57
2018-11-21T11:28:41.213Z,6.64
2018-11-21T11:29:41.264Z,6.51
2018-11-21T11:30:41.338Z,6.54
2018-11-21T11:31:41.381Z,6.63
2018-11-21T11:32:41.448Z,6.51
2018-11-21T11:33:41.501Z,6.59
2018-11-21T11:34:41.561Z,6.57
2018-11-21T11:35:41.633Z,6.60
2018-11-21T11:36:41.689Z,6.49
2018-11-21T11:37:41.752Z,6.60
2018-11-21T11:38:41.802Z,6.57
2018-11-21T11:39:41.861Z,6.59
2018-11-21T11:40:41.929Z,6.59
2018-11-21T11:41:41.997Z,6.64
2018-11-21T11:42:42.042Z,6.69
2018-11-21T11:43:42.102Z,6.69
2018-11-21T11:44:42.162Z,6.77
2018-11-21T11:45:42.462Z,6.77
2018-11-21T11:46:42.281Z,6.81
2018-11-21T11:47:42.345Z,6.87
2018-11-21T11:48:42.403Z,6.88
2018-11-21T11:49:42.462Z,6.93
2018-11-21T11:50:42.531Z,6.96
2018-11-21T11:51:42.598Z,6.93
2018-11-21T11:52:42.655Z,7.07
2018-11-21T11:53:42.704Z,7.17
2018-11-21T11:54:42.765Z,7.11
2018-11-21T11:55:42.830Z,7.11
2018-11-21T11:56:42.890Z,7.10
2018-11-21T11:57:42.942Z,7.17
2018-11-21T11:58:43.002Z,7.02
2018-11-21T11:59:43.063Z,7.06
2018-11-21T12:00:43.220Z,7.05
2018-11-21T12:01:43.183Z,7.10
2018-11-21T12:02:43.246Z,7.06
2018-11-21T12:03:43.302Z,7.06
2018-11-21T12:04:43.363Z,6.95
2018-11-21T12:05:43.430Z,6.97
2018-11-21T12:06:43.491Z,6.96
2018-11-21T12:07:43.545Z,6.99
2018-11-21T12:08:43.603Z,7.02
2018-11-21T12:09:43.662Z,7.10
2018-11-21T12:10:43.731Z,7.07
2018-11-21T12:11:43.795Z,7.10
2018-11-21T12:12:43.844Z,7.10
2018-11-21T12:13:43.903Z,7.10
2018-11-21T12:14:43.967Z,7.11
2018-11-21T12:15:44.031Z,7.14
2018-11-21T12:16:44.091Z,7.06
2018-11-21T12:17:44.147Z,7.13
2018-11-21T12:18:44.207Z,7.11
2018-11-21T12:19:44.271Z,7.03
2018-11-21T12:20:44.331Z,7.11
2018-11-21T12:21:44.391Z,7.14
2018-11-21T12:22:44.447Z,7.17
2018-11-21T12:23:44.507Z,7.14
2018-11-21T12:24:44.573Z,7.14
2018-11-21T12:25:44.635Z,7.13
2018-11-21T12:26:44.699Z,7.06
2018-11-21T12:27:44.747Z,7.13
2018-11-21T12:28:44.807Z,7.10
2018-11-21T12:29:44.868Z,7.10
2018-11-21T12:30:44.936Z,7.06
2018-11-21T12:31:44.996Z,7.14
2018-11-21T12:32:45.048Z,7.18
2018-11-21T12:33:45.108Z,7.07
2018-11-21T12:34:45.171Z,7.15
2018-11-21T12:35:45.488Z,7.21
2018-11-21T12:36:45.288Z,7.10
2018-11-21T12:37:45.389Z,7.11
2018-11-21T12:38:45.426Z,7.17
2018-11-21T12:39:45.472Z,7.05
2018-11-21T12:40:45.535Z,7.03
2018-11-21T12:41:45.596Z,7.06
2018-11-21T12:42:45.652Z,7.02
2018-11-21T12:43:45.714Z,6.97
2018-11-21T12:44:45.772Z,6.96
2018-11-21T12:45:45.841Z,6.99
2018-11-21T12:46:45.901Z,6.99
2018-11-21T12:47:45.956Z,6.84
2018-11-21T12:48:46.012Z,6.85
2018-11-21T12:49:46.072Z,6.81
2018-11-21T12:50:46.217Z,6.78
2018-11-21T12:51:46.193Z,6.77
2018-11-21T12:52:46.257Z,6.78
2018-11-21T12:53:46.313Z,6.77
2018-11-21T12:54:46.377Z,6.64
2018-11-21T12:55:46.445Z,6.64
2018-11-21T12:56:46.501Z,6.59
2018-11-21T12:57:46.572Z,6.67
2018-11-21T12:58:46.617Z,6.56
2018-11-21T12:59:46.681Z,6.64
2018-11-21T13:00:46.745Z,6.56
2018-11-21T13:01:46.809Z,6.57
2018-11-21T13:02:46.857Z,6.57
2018-11-21T13:03:46.917Z,6.51
2018-11-21T13:04:46.977Z,6.49
2018-11-21T13:05:47.045Z,6.49
2018-11-21T13:06:47.109Z,6.49
2018-11-21T13:07:47.159Z,6.49
2018-11-21T13:08:47.226Z,6.52
2018-11-21T13:09:47.277Z,6.56
2018-11-21T13:10:47.346Z,6.54
2018-11-21T13:11:47.409Z,6.49
2018-11-21T13:12:47.458Z,6.56
2018-11-21T13:13:47.522Z,6.46
2018-11-21T13:14:47.582Z,6.42
2018-11-21T13:15:47.654Z,6.39
2018-11-21T13:16:47.718Z,6.42
2018-11-21T13:17:47.762Z,6.33
2018-11-21T13:18:47.822Z,6.45